Flight Track Log - Related Links

Times and Time Zones

All times are in EDT time to prevent confusion due to time zone crossing. See the UAL1151 flight status page for this flight to view local times or setup timezone preferences in your user account.

Time Position Orientation Groundspeed Altitude Reporting Facility
EDT Latitude Longitude Course Direction KTS MPH feet Rate Location/Type
Fri 04:37:48 PM 47.4624 -122.3080 North 184 212 800  Level FlightAware ADS-B
Fri 04:37:57 PM 47.4696 -122.3080 360° North 176 203 1,200 2,160 Climbing FlightAware ADS-B
Fri 04:38:13 PM 47.4830 -122.3080 360° North 193 222 1,700 1,742 Climbing FlightAware ADS-B
Fri 04:38:28 PM 47.4976 -122.3080 360° North 213 245 2,100 1,548 Climbing FlightAware ADS-B
Fri 04:38:44 PM 47.5145 -122.3090 358° North 231 266 2,500 2,000 Climbing FlightAware ADS-B
Fri 04:38:58 PM 47.5300 -122.3090 360° North 240 276 3,100 3,000 Climbing FlightAware ADS-B
Fri 04:39:02 PM 47.5342 -122.3090 360° North 239 275 3,400 3,158 Climbing FlightAware ADS-B
Fri 04:39:17 PM 47.5510 -122.3090 360° North 246 283 4,100 2,538 Climbing FlightAware ADS-B
Fri 04:39:28 PM 47.5630 -122.3090 360° North 253 291 4,500 2,182 Climbing FlightAware ADS-B
Fri 04:39:39 PM 47.5770 -122.3090 360° North 266 306 4,900 2,000 Climbing FlightAware ADS-B
Fri 04:39:43 PM 47.5823 -122.3090 360° North 272 313 5,000 1,500 Climbing FlightAware ADS-B
Fri 04:39:47 PM 47.5864 -122.3080 North 276 318 5,100 1,714 Climbing FlightAware ADS-B
Fri 04:39:50 PM 47.5905 -122.3060 18° North 280 322 5,200 2,000 Climbing FlightAware ADS-B
Fri 04:39:53 PM 47.5948 -122.3040 17° North 284 327 5,300 1,500 Climbing FlightAware ADS-B
Fri 04:39:58 PM 47.5997 -122.3000 29° Northeast 286 329 5,400 1,500 Climbing FlightAware ADS-B
Fri 04:40:01 PM 47.6030 -122.2970 32° Northeast 288 331 5,500 2,727 Climbing FlightAware ADS-B
Fri 04:40:09 PM 47.6105 -122.2850 47° Northeast 289 333 5,900 3,273 Climbing FlightAware ADS-B
Fri 04:40:12 PM 47.6133 -122.2790 55° Northeast 285 328 6,100 3,000 Climbing FlightAware ADS-B
Fri 04:40:17 PM 47.6159 -122.2710 64° Northeast 282 325 6,300 3,333 Climbing FlightAware ADS-B
Fri 04:40:21 PM 47.6179 -122.2640 67° East 278 320 6,600 3,750 Climbing FlightAware ADS-B
Fri 04:40:25 PM 47.6190 -122.2560 78° East 275 316 6,800 2,400 Climbing FlightAware ADS-B
Fri 04:40:31 PM 47.6201 -122.2470 80° East 275 316 7,000 3,000 Climbing FlightAware ADS-B
Fri 04:40:47 PM 47.6230 -122.2160 82° East 279 321 7,900 3,273 Climbing FlightAware ADS-B
Fri 04:40:53 PM 47.6236 -122.2050 85° East 277 319 8,200 3,000 Climbing FlightAware ADS-B
Fri 04:40:57 PM 47.6236 -122.1970 90° East 276 318 8,400 2,571 Climbing FlightAware ADS-B
Fri 04:41:00 PM 47.6232 -122.1900 95° East 275 316 8,500 2,571 Climbing FlightAware ADS-B
Fri 04:41:04 PM 47.6223 -122.1830 101° East 276 318 8,700 1,500 Climbing FlightAware ADS-B
Fri 04:41:08 PM 47.6208 -122.1770 110° East 277 319 8,700 857 Level FlightAware ADS-B
Fri 04:41:11 PM 47.6190 -122.1710 114° Southeast 280 322 8,800 2,250 Climbing FlightAware ADS-B
Fri 04:41:16 PM 47.6162 -122.1640 121° Southeast 281 323 9,000 2,250 Climbing FlightAware ADS-B
Fri 04:41:19 PM 47.6136 -122.1590 128° Southeast 280 322 9,100 2,571 Climbing FlightAware ADS-B
Fri 04:41:23 PM 47.6100 -122.1530 132° Southeast 280 322 9,300 2,571 Climbing FlightAware ADS-B
Fri 04:41:26 PM 47.6072 -122.1490 136° Southeast 280 322 9,400 2,000 Climbing FlightAware ADS-B
Fri 04:41:29 PM 47.6036 -122.1450 143° Southeast 279 321 9,500 2,571 Climbing FlightAware ADS-B
Fri 04:41:33 PM 47.6001 -122.1420 150° Southeast 280 322 9,700 2,571 Climbing FlightAware ADS-B
Fri 04:41:36 PM 47.5966 -122.1390 150° Southeast 280 322 9,800 2,000 Climbing FlightAware ADS-B
Fri 04:41:39 PM 47.5923 -122.1370 163° South 281 323 9,900 1,714 Climbing FlightAware ADS-B
Fri 04:41:43 PM 47.5880 -122.1350 163° South 282 325 10,000 1,500 Climbing FlightAware ADS-B
Fri 04:41:47 PM 47.5822 -122.1330 167° South 285 328 10,100 1,800 Climbing FlightAware ADS-B
Fri 04:41:53 PM 47.5742 -122.1310 170° South 289 333 10,300 1,667 Climbing FlightAware ADS-B
Fri 04:42:23 PM 47.5317 -122.1300 179° South 316 364 11,100 2,100 Climbing FlightAware ADS-B
Fri 04:42:53 PM 47.4876 -122.1250 176° South 329 379 12,400 2,500 Climbing FlightAware ADS-B
Fri 04:43:23 PM 47.4412 -122.1170 173° South 339 390 13,600 2,500 Climbing FlightAware ADS-B
Fri 04:43:53 PM 47.3937 -122.1090 173° South 346 398 14,900 2,754 Climbing FlightAware ADS-B
Fri 04:44:24 PM 47.3457 -122.1020 174° South 347 399 16,400 2,557 Climbing FlightAware ADS-B
Fri 04:44:54 PM 47.2974 -122.0940 174° South 352 405 17,500 2,100 Climbing FlightAware ADS-B
Fri 04:45:24 PM 47.2468 -122.0860 174° South 365 420 18,500 1,869 Climbing FlightAware ADS-B
Fri 04:45:55 PM 47.1945 -122.0780 174° South 375 432 19,400 2,066 Climbing FlightAware ADS-B
Fri 04:46:25 PM 47.1420 -122.0700 174° South 375 432 20,600 2,323 Climbing FlightAware ADS-B
Fri 04:46:57 PM 47.0881 -122.0610 174° South 376 433 21,800 2,129 Climbing FlightAware ADS-B
Fri 04:47:27 PM 47.0356 -122.0530 174° South 378 435 22,800 1,900 Climbing FlightAware ADS-B
Fri 04:47:57 PM 46.9825 -122.0450 174° South 383 441 23,700 1,672 Climbing FlightAware ADS-B
Fri 04:48:28 PM 46.9275 -122.0360 174° South 393 452 24,500 1,452 Climbing FlightAware ADS-B
Fri 04:48:59 PM 46.8708 -122.0270 174° South 400 460 25,200 1,574 Climbing FlightAware ADS-B
Fri 04:49:29 PM 46.8149 -122.0190 174° South 402 463 26,100 1,756 Climbing FlightAware ADS-B
Fri 04:49:40 PM 46.7949 -122.0140 170° South 403 464 26,400 1,765 Climbing FlightAware ADS-B
Fri 04:49:46 PM 46.7847 -122.0100 165° South 409 471 26,600 1,636 Climbing FlightAware ADS-B
Fri 04:49:51 PM 46.7754 -122.0040 156° South 413 475 26,700 1,800 Climbing FlightAware ADS-B
Fri 04:49:56 PM 46.7667 -121.9970 151° Southeast 419 482 26,900 1,636 Climbing FlightAware ADS-B
Fri 04:50:02 PM 46.7568 -121.9870 145° Southeast 425 489 27,000 1,500 Climbing FlightAware ADS-B
Fri 04:50:08 PM 46.7476 -121.9760 141° Southeast 431 496 27,200 1,500 Climbing FlightAware ADS-B
Fri 04:50:14 PM 46.7389 -121.9630 134° Southeast 438 504 27,300 1,091 Climbing FlightAware ADS-B
Fri 04:50:19 PM 46.7326 -121.9520 130° Southeast 444 511 27,400 1,333 Climbing FlightAware ADS-B
Fri 04:50:50 PM 46.6992 -121.8730 122° Southeast 457 526 28,100 1,279 Climbing FlightAware ADS-B
Fri 04:51:20 PM 46.6658 -121.7930 121° Southeast 462 532 28,700 1,200 Climbing FlightAware ADS-B
Fri 04:51:50 PM 46.6319 -121.7140 122° Southeast 466 536 29,300 1,180 Climbing FlightAware ADS-B
Fri 04:52:21 PM 46.5968 -121.6320 122° Southeast 468 539 29,900 1,258 Climbing FlightAware ADS-B
Fri 04:52:52 PM 46.5608 -121.5480 122° Southeast 466 536 30,600 1,452 Climbing FlightAware ADS-B
Fri 04:53:23 PM 46.5261 -121.4670 122° Southeast 464 534 31,400 1,462 Climbing FlightAware ADS-B
Fri 04:54:10 PM 46.4730 -121.3440 122° Southeast 464 534 32,500 1,412 Climbing FlightAware ADS-B
Fri 04:54:48 PM 46.4294 -121.2440 122° Southeast 460 529 33,400 1,500 Climbing FlightAware ADS-B
Fri 04:55:18 PM 46.3958 -121.1670 122° Southeast 455 524 34,200 1,475 Climbing FlightAware ADS-B
Fri 04:55:49 PM 46.3609 -121.0870 122° Southeast 452 520 34,900 774 Climbing FlightAware ADS-B
Fri 04:56:20 PM 46.3271 -121.0090 122° Southeast 454 522 35,000 63 Climbing FlightAware ADS-B
Fri 04:57:24 PM 46.2550 -120.8440 122° Southeast 455 524 35,000  Level FlightAware ADS-B
Fri 04:57:34 PM 46.2440 -120.8200 124° Southeast 454 522 35,000  Level FlightAware ADS-B
Fri 04:58:11 PM 46.2018 -120.7250 123° Southeast 454 522 35,000  Level FlightAware ADS-B
Fri 04:58:50 PM 46.1580 -120.6280 123° Southeast 452 520 35,000  Level FlightAware ADS-B
Fri 04:59:28 PM 46.1150 -120.5300 122° Southeast 453 521 35,000  Level FlightAware ADS-B
Fri 05:00:12 PM 46.0640 -120.4170 123° Southeast 456 525 35,000  Level FlightAware ADS-B
Fri 05:00:56 PM 46.0150 -120.3060 122° Southeast 456 525 35,000  Level FlightAware ADS-B
Fri 05:01:37 PM 45.9680 -120.2040 124° Southeast 456 525 35,000  Level FlightAware ADS-B
Fri 05:02:22 PM 45.9170 -120.0890 122° Southeast 456 525 35,000  Level FlightAware ADS-B
Fri 05:02:56 PM 45.8780 -120.0040 123° Southeast 454 522 35,000  Level FlightAware ADS-B
Fri 05:03:42 PM 45.8250 -119.8880 123° Southeast 453 521 35,000  Level FlightAware ADS-B
Fri 05:04:25 PM 45.7760 -119.7810 123° Southeast 452 520 35,000  Level FlightAware ADS-B
Fri 05:05:15 PM 45.7190 -119.6560 123° Southeast 453 521 35,000  Level FlightAware ADS-B
Fri 05:05:58 PM 45.6690 -119.5480 123° Southeast 452 520 35,000  Level FlightAware ADS-B
Fri 05:06:45 PM 45.6140 -119.4300 124° Southeast 453 521 35,000  Level FlightAware ADS-B
Fri 05:07:27 PM 45.5660 -119.3260 123° Southeast 454 522 35,000  Level FlightAware ADS-B
Fri 05:08:11 PM 45.5150 -119.2160 123° Southeast 455 524 35,000  Level FlightAware ADS-B
Fri 05:08:51 PM 45.4680 -119.1150 124° Southeast 456 525 35,000  Level FlightAware ADS-B
Fri 05:09:51 PM 45.4060 -118.9810 123° Southeast 456 525 35,000  Level FlightAware ADS-B
Fri 05:10:28 PM 45.3550 -118.8740 124° Southeast 457 526 35,000  Level FlightAware ADS-B
Fri 05:11:04 PM 45.3120 -118.7840 124° Southeast 456 525 35,000  Level FlightAware ADS-B
Fri 05:11:56 PM 45.2510 -118.6570 124° Southeast 457 526 35,000  Level FlightAware ADS-B
Fri 05:12:36 PM 45.2040 -118.5570 124° Southeast 457 526 35,000  Level FlightAware ADS-B
Fri 05:13:18 PM 45.1530 -118.4520 125° Southeast 457 526 35,000  Level FlightAware ADS-B
Fri 05:14:30 PM 45.0730 -118.2840 124° Southeast 455 524 35,000  Level FlightAware ADS-B
Fri 05:15:21 PM 45.0090 -118.1530 125° Southeast 457 526 35,000  Level FlightAware ADS-B
Fri 05:16:22 PM 44.9340 -118.0000 125° Southeast 458 527 35,000  Level FlightAware ADS-B
Fri 05:17:04 PM 44.8830 -117.8950 124° Southeast 457 526 35,000  Level FlightAware ADS-B
Fri 05:17:36 PM 44.8450 -117.8180 125° Southeast 457 526 35,000  Level FlightAware ADS-B
Fri 05:18:36 PM 44.7830 -117.6750 121° Southeast 458 527 35,000  Level FlightAware ADS-B
Fri 05:19:24 PM 44.7390 -117.5710 121° Southeast 458 527 35,000  Level FlightAware ADS-B
Fri 05:20:00 PM 44.7050 -117.4930 122° Southeast 458 527 35,000  Level FlightAware ADS-B
Fri 05:20:38 PM 44.6700 -117.4100 121° Southeast 458 527 35,000  Level FlightAware ADS-B
Fri 05:21:25 PM 44.6260 -117.3080 121° Southeast 458 527 35,000  Level FlightAware ADS-B
Fri 05:22:26 PM 44.5700 -117.1760 121° Southeast 458 527 35,000  Level FlightAware ADS-B
Fri 05:23:02 PM 44.5360 -117.0980 121° Southeast 458 527 35,000  Level FlightAware ADS-B
Fri 05:24:04 PM 44.4790 -116.9640 121° Southeast 458 527 35,000  Level FlightAware ADS-B
Fri 05:24:44 PM 44.4420 -116.8770 121° Southeast 458 527 35,000  Level FlightAware ADS-B
Fri 05:25:20 PM 44.4080 -116.7990 121° Southeast 458 527 35,000  Level FlightAware ADS-B
Fri 05:26:08 PM 44.3640 -116.6960 121° Southeast 458 527 35,000  Level FlightAware ADS-B
Fri 05:26:45 PM 44.3290 -116.6160 121° Southeast 458 527 35,000  Level FlightAware ADS-B
Fri 05:27:34 PM 44.2840 -116.5100 121° Southeast 458 527 35,000 909 Level FlightAware ADS-B
Fri 05:28:57 PM 44.0722 -116.1117 121° Southeast 462 532 37,000 828 Climbing Salt Lake Center
Fri 05:29:59 PM 44.0081 -115.9714 122° Southeast 453 521 37,000  Level Salt Lake Center
Fri 05:31:01 PM 43.9300 -115.8075 123° Southeast 455 524 37,000  Level Salt Lake Center
Fri 05:32:03 PM 43.8656 -115.6667 122° Southeast 454 522 37,000  Level Salt Lake Center
Fri 05:33:05 PM 43.7878 -115.5053 124° Southeast 451 519 37,000  Level Salt Lake Center
Fri 05:34:07 PM 43.7225 -115.3644 123° Southeast 454 522 37,000  Level Salt Lake Center
Fri 05:35:09 PM 43.6444 -115.2028 124° Southeast 454 522 37,000  Level Salt Lake Center
Fri 05:36:11 PM 43.5775 -115.0633 123° Southeast 455 524 37,000  Level Salt Lake Center
Fri 05:37:13 PM 43.4992 -114.9025 124° Southeast 453 521 37,000  Level Salt Lake Center
Fri 05:38:15 PM 43.4328 -114.7644 123° Southeast 452 520 37,000  Level Salt Lake Center
Fri 05:43:34 PM 43.0540 -113.9980 123° Southeast 457 526 37,000  Level FlightAware ADS-B
Fri 05:44:22 PM 43.0050 -113.8990 124° Southeast 456 525 37,000  Level FlightAware ADS-B
Fri 05:44:58 PM 42.9690 -113.8250 124° Southeast 456 525 37,000  Level FlightAware ADS-B
Fri 05:45:38 PM 42.9050 -113.7010 125° Southeast 451 519 37,000  Level FlightAware ADS-B
Fri 05:46:26 PM 42.8480 -113.5890 125° Southeast 449 517 37,000  Level FlightAware ADS-B
Fri 05:46:47 PM 42.8232 -113.5410 125° Southeast 450 518 37,000  Level FlightAware ADS-B
Fri 05:47:46 PM 42.7550 -113.4060 124° Southeast 447 514 37,000  Level FlightAware ADS-B
Fri 05:47:57 PM 42.7404 -113.3780 125° Southeast 449 517 37,000  Level FlightAware ADS-B
Fri 05:48:37 PM 42.6938 -113.2870 125° Southeast 447 514 37,000  Level FlightAware ADS-B
Fri 05:49:14 PM 42.6500 -113.2020 125° Southeast 447 514 37,000  Level FlightAware ADS-B
Fri 05:49:51 PM 42.6150 -113.1320 124° Southeast 449 517 37,000  Level FlightAware ADS-B
Fri 05:50:53 PM 42.5540 -113.0080 124° Southeast 449 517 37,000  Level FlightAware ADS-B
Fri 05:51:30 PM 42.5180 -112.9350 124° Southeast 449 517 37,000  Level FlightAware ADS-B
Fri 05:52:18 PM 42.4290 -112.7740 127° Southeast 458 527 37,000  Level FlightAware ADS-B
Fri 05:52:31 PM 42.4111 -112.7400 125° Southeast 459 528 37,000  Level FlightAware ADS-B
Fri 05:53:08 PM 42.3658 -112.6530 125° Southeast 459 528 37,000  Level FlightAware ADS-B
Fri 05:54:08 PM 42.2930 -112.5150 125° Southeast 456 525 37,000  Level FlightAware ADS-B
Fri 05:54:48 PM 42.2520 -112.4360 125° Southeast 456 525 37,000  Level FlightAware ADS-B
Fri 05:55:06 PM 42.2220 -112.3800 126° Southeast 458 527 37,000  Level FlightAware ADS-B
Fri 05:56:05 PM 42.1496 -112.2430 125° Southeast 456 525 37,000  Level FlightAware ADS-B
Fri 05:56:42 PM 42.1050 -112.1600 126° Southeast 455 524 37,000  Level FlightAware ADS-B
Fri 05:56:51 PM 42.0941 -112.1390 125° Southeast 456 525 37,000  Level FlightAware ADS-B
Fri 05:57:38 PM 42.0380 -112.0340 126° Southeast 456 525 37,000  Level FlightAware ADS-B
Fri 05:58:26 PM 41.9773 -111.9200 126° Southeast 458 527 37,000  Level FlightAware ADS-B
Fri 05:59:14 PM 41.9179 -111.8090 126° Southeast 458 527 37,000  Level FlightAware ADS-B
Fri 05:59:46 PM 41.8777 -111.7350 126° Southeast 461 531 37,000  Level FlightAware ADS-B
Fri 06:00:20 PM 41.8360 -111.6580 126° Southeast 461 531 37,000  Level FlightAware ADS-B
Fri 06:00:42 PM 41.8083 -111.6060 126° Southeast 461 531 37,000  Level FlightAware ADS-B
Fri 06:01:15 PM 41.7664 -111.5290 126° Southeast 462 532 37,000  Level FlightAware ADS-B
Fri 06:01:45 PM 41.7279 -111.4580 126° Southeast 464 534 37,000  Level FlightAware ADS-B
Fri 06:02:16 PM 41.6900 -111.3890 126° Southeast 463 533 37,000  Level FlightAware ADS-B
Fri 06:02:50 PM 41.6466 -111.3090 126° Southeast 462 532 37,000  Level FlightAware ADS-B
Fri 06:03:21 PM 41.6076 -111.2380 126° Southeast 461 531 37,000  Level FlightAware ADS-B
Fri 06:03:51 PM 41.5693 -111.1680 126° Southeast 461 531 37,000  Level FlightAware ADS-B
Fri 06:04:22 PM 41.5310 -111.0990 127° Southeast 461 531 37,000  Level FlightAware ADS-B
Fri 06:04:54 PM 41.4910 -111.0260 126° Southeast 461 531 37,000  Level FlightAware ADS-B
Fri 06:05:25 PM 41.4515 -110.9550 127° Southeast 462 532 37,000  Level FlightAware ADS-B
Fri 06:06:08 PM 41.3970 -110.8560 126° Southeast 462 532 37,000  Level FlightAware ADS-B
Fri 06:06:40 PM 41.3568 -110.7840 127° Southeast 463 533 37,000  Level FlightAware ADS-B
Fri 06:07:11 PM 41.3172 -110.7130 127° Southeast 463 533 37,000  Level FlightAware ADS-B
Fri 06:08:06 PM 41.2468 -110.5870 127° Southeast 463 533 37,000  Level FlightAware ADS-B
Fri 06:08:40 PM 41.2034 -110.5090 126° Southeast 462 532 37,000  Level FlightAware ADS-B
Fri 06:09:13 PM 41.1613 -110.4350 127° Southeast 461 531 37,000  Level FlightAware ADS-B
Fri 06:10:02 PM 41.1028 -110.3331 127° Southeast 459 528 37,000  Level Denver Center
Fri 06:11:04 PM 41.0311 -110.2058 127° Southeast 454 522 37,000  Level Denver Center
Fri 06:12:06 PM 40.9458 -110.0558 127° Southeast 456 525 37,000  Level Denver Center
Fri 06:13:07 PM 40.8853 -109.9500 127° Southeast 456 525 37,000  Level Denver Center
Fri 06:14:10 PM 40.7875 -109.7803 127° Southeast 459 528 37,000  Level Denver Center
Fri 06:15:12 PM 40.7142 -109.6550 128° Southeast 454 522 37,000  Level Denver Center
Fri 06:16:14 PM 40.6350 -109.5142 126° Southeast 460 529 37,000  Level Denver Center
Fri 06:17:16 PM 40.5486 -109.3647 127° Southeast 458 527 37,000  Level Denver Center
Fri 06:18:18 PM 40.4728 -109.2369 128° Southeast 463 533 37,000  Level Denver Center
Fri 06:19:19 PM 40.4111 -109.1286 127° Southeast 463 533 37,000  Level Denver Center
Fri 06:24:55 PM 39.9620 -108.3730 127° Southeast 465 535 37,000  Level FlightAware ADS-B
Fri 06:28:33 PM 39.6780 -107.9060 128° Southeast 467 537 37,000  Level FlightAware ADS-B
Fri 06:29:16 PM 39.6110 -107.7970 129° Southeast 467 537 37,000  Level FlightAware ADS-B
Fri 06:30:05 PM 39.5250 -107.6720 132° Southeast 463 533 37,000  Level FlightAware ADS-B
Fri 06:30:47 PM 39.4590 -107.6030 141° Southeast 462 532 37,000  Level FlightAware ADS-B
Fri 06:31:02 PM 39.4284 -107.5700 140° Southeast 37,000  Level FlightAware ADS-B
Fri 06:31:28 PM 39.3862 -107.5250 140° Southeast 458 527 37,000  Level FlightAware ADS-B
Fri 06:31:38 PM 39.3704 -107.5040 134° Southeast 458 527 37,000  Level FlightAware ADS-B
Fri 06:31:51 PM 39.3522 -107.4770 131° Southeast 459 528 37,000  Level FlightAware ADS-B
Fri 06:32:22 PM 39.3081 -107.4170 134° Southeast 458 527 37,000  Level FlightAware ADS-B
Fri 06:32:46 PM 39.2736 -107.3690 133° Southeast 458 527 37,000  Level FlightAware ADS-B
Fri 06:32:52 PM 39.2642 -107.3550 131° Southeast 458 527 37,000  Level FlightAware ADS-B
Fri 06:33:22 PM 39.2250 -107.2900 128° Southeast 459 528 37,000  Level FlightAware ADS-B
Fri 06:33:54 PM 39.1847 -107.2230 128° Southeast 460 529 37,000  Level FlightAware ADS-B
Fri 06:34:24 PM 39.1450 -107.1570 128° Southeast 462 532 37,000  Level FlightAware ADS-B
Fri 06:34:55 PM 39.1050 -107.0910 128° Southeast 462 532 37,000  Level FlightAware ADS-B
Fri 06:35:35 PM 39.0523 -107.0040 128° Southeast 462 532 37,000  Level FlightAware ADS-B
Fri 06:36:05 PM 39.0122 -106.9390 128° Southeast 462 532 37,000  Level FlightAware ADS-B
Fri 06:36:36 PM 38.9719 -106.8730 128° Southeast 459 528 37,000  Level FlightAware ADS-B
Fri 06:37:06 PM 38.9322 -106.8090 129° Southeast 459 528 37,000  Level FlightAware ADS-B
Fri 06:37:36 PM 38.8919 -106.7440 129° Southeast 458 527 37,000  Level FlightAware ADS-B
Fri 06:38:07 PM 38.8524 -106.6790 128° Southeast 457 526 37,000  Level FlightAware ADS-B
Fri 06:38:37 PM 38.8125 -106.6150 129° Southeast 457 526 37,000  Level FlightAware ADS-B
Fri 06:39:08 PM 38.7727 -106.5500 128° Southeast 456 525 37,000  Level FlightAware ADS-B
Fri 06:39:39 PM 38.7318 -106.4850 129° Southeast 455 524 37,000  Level FlightAware ADS-B
Fri 06:40:17 PM 38.6811 -106.4030 128° Southeast 454 522 37,000  Level FlightAware ADS-B
Fri 06:40:47 PM 38.6419 -106.3400 129° Southeast 453 521 37,000  Level FlightAware ADS-B
Fri 06:41:18 PM 38.6015 -106.2750 128° Southeast 454 522 37,000  Level FlightAware ADS-B
Fri 06:41:48 PM 38.5622 -106.2130 129° Southeast 453 521 37,000  Level FlightAware ADS-B
Fri 06:42:19 PM 38.5227 -106.1500 129° Southeast 452 520 37,000  Level FlightAware ADS-B
Fri 06:42:49 PM 38.4832 -106.0870 129° Southeast 455 524 37,000  Level FlightAware ADS-B
Fri 06:43:22 PM 38.4400 -106.0190 129° Southeast 455 524 37,000  Level FlightAware ADS-B
Fri 06:43:52 PM 38.3994 -105.9540 129° Southeast 455 524 37,000  Level FlightAware ADS-B
Fri 06:44:23 PM 38.3595 -105.8910 129° Southeast 455 524 37,000  Level FlightAware ADS-B
Fri 06:44:53 PM 38.3193 -105.8270 129° Southeast 457 526 37,000  Level FlightAware ADS-B
Fri 06:45:25 PM 38.2777 -105.7620 129° Southeast 455 524 37,000  Level FlightAware ADS-B
Fri 06:45:55 PM 38.2382 -105.7000 129° Southeast 454 522 37,000  Level FlightAware ADS-B
Fri 06:46:25 PM 38.1977 -105.6360 129° Southeast 455 524 37,000  Level FlightAware ADS-B
Fri 06:46:56 PM 38.1574 -105.5730 129° Southeast 456 525 37,000  Level FlightAware ADS-B
Fri 06:47:10 PM 38.1388 -105.5440 129° Southeast 458 527 37,000  Level FlightAware ADS-B
Fri 06:47:40 PM 38.0946 -105.4850 134° Southeast 462 532 37,000  Level FlightAware ADS-B
Fri 06:48:10 PM 38.0498 -105.4260 134° Southeast 463 533 37,000  Level FlightAware ADS-B
Fri 06:48:23 PM 38.0299 -105.4010 135° Southeast 464 534 37,000  Level FlightAware ADS-B
Fri 06:48:53 PM 37.9823 -105.3450 137° Southeast 466 536 37,000  Level FlightAware ADS-B
Fri 06:49:23 PM 37.9357 -105.2900 137° Southeast 471 542 37,000  Level FlightAware ADS-B
Fri 06:49:53 PM 37.8884 -105.2320 136° Southeast 473 544 37,000  Level FlightAware ADS-B
Fri 06:50:24 PM 37.8387 -105.1720 136° Southeast 472 543 37,000  Level FlightAware ADS-B
Fri 06:50:55 PM 37.7904 -105.1140 136° Southeast 472 543 37,000  Level FlightAware ADS-B
Fri 06:51:26 PM 37.7426 -105.0550 136° Southeast 471 542 37,000  Level FlightAware ADS-B
Fri 06:51:58 PM 37.6914 -104.9920 136° Southeast 472 543 37,000  Level FlightAware ADS-B
Fri 06:52:30 PM 37.6422 -104.9330 136° Southeast 471 542 37,000  Level FlightAware ADS-B
Fri 06:53:07 PM 37.5837 -104.8610 136° Southeast 472 543 37,000  Level FlightAware ADS-B
Fri 06:53:16 PM 37.5705 -104.8440 134° Southeast 472 543 37,000  Level FlightAware ADS-B
Fri 06:53:30 PM 37.5513 -104.8130 128° Southeast 474 545 37,000  Level FlightAware ADS-B
Fri 06:54:08 PM 37.5043 -104.7280 125° Southeast 476 548 37,000  Level FlightAware ADS-B
Fri 06:54:59 PM 37.4454 -104.6070 121° Southeast 476 548 37,000  Level FlightAware ADS-B
Fri 06:55:50 PM 37.3850 -104.4870 122° Southeast 475 547 37,000  Level FlightAware ADS-B
Fri 06:56:35 PM 37.3347 -104.3840 122° Southeast 472 543 37,000  Level FlightAware ADS-B
Fri 06:57:25 PM 37.2772 -104.2650 121° Southeast 472 543 37,000  Level FlightAware ADS-B
Fri 06:57:56 PM 37.2419 -104.1930 122° Southeast 472 543 37,000  Level FlightAware ADS-B
Fri 06:58:42 PM 37.1902 -104.0850 121° Southeast 473 544 37,000  Level FlightAware ADS-B
Fri 06:59:15 PM 37.1537 -104.0080 121° Southeast 473 544 37,000  Level FlightAware ADS-B
Fri 06:59:48 PM 37.1166 -103.9300 121° Southeast 475 547 37,000  Level FlightAware ADS-B
Fri 07:00:26 PM 37.0734 -103.8400 121° Southeast 475 547 37,000  Level FlightAware ADS-B
Fri 07:01:40 PM 36.9978 -103.6842 121° Southeast 474 545 37,000  Level Albuquerque Center
Fri 07:02:42 PM 36.9122 -103.5353 126° Southeast 474 545 37,000  Level Albuquerque Center
Fri 07:03:43 PM 36.8292 -103.4167 131° Southeast 472 543 37,000  Level Albuquerque Center
Fri 07:04:45 PM 36.7447 -103.2978 132° Southeast 477 549 37,000  Level Albuquerque Center
Fri 07:05:47 PM 36.6469 -103.1564 131° Southeast 481 554 37,000  Level Albuquerque Center
Fri 07:06:48 PM 36.5608 -103.0358 132° Southeast 486 559 37,000  Level Albuquerque Center
Fri 07:07:50 PM 36.4717 -102.9083 131° Southeast 485 558 37,000  Level Albuquerque Center
Fri 07:08:51 PM 36.3839 -102.7839 131° Southeast 481 554 37,000  Level Albuquerque Center
Fri 07:09:53 PM 36.2950 -102.6592 131° Southeast 481 554 37,000  Level Albuquerque Center
Fri 07:10:55 PM 36.1886 -102.5106 132° Southeast 482 555 37,000  Level Albuquerque Center
Fri 07:11:56 PM 36.0994 -102.3867 132° Southeast 482 555 37,000  Level Albuquerque Center
Fri 07:12:58 PM 36.0106 -102.2644 132° Southeast 480 552 37,000  Level Albuquerque Center
Fri 07:13:59 PM 35.9219 -102.1408 131° Southeast 480 552 37,000  Level Albuquerque Center
Fri 07:15:01 PM 35.8336 -102.0192 132° Southeast 478 550 37,000  Level Albuquerque Center
Fri 07:16:02 PM 35.7450 -101.8978 132° Southeast 476 548 37,000  Level Albuquerque Center
Fri 07:17:04 PM 35.6567 -101.7758 132° Southeast 476 548 37,000  Level Albuquerque Center
Fri 07:18:05 PM 35.5678 -101.6542 132° Southeast 476 548 37,000  Level Albuquerque Center
Fri 07:19:07 PM 35.4761 -101.5292 132° Southeast 476 548 37,000  Level Albuquerque Center
Fri 07:20:08 PM 35.3872 -101.4097 132° Southeast 475 547 37,000  Level Albuquerque Center
Fri 07:21:10 PM 35.2983 -101.2900 132° Southeast 470 541 37,000  Level Albuquerque Center
Fri 07:22:11 PM 35.1917 -101.1486 133° Southeast 469 540 37,000  Level Albuquerque Center
Fri 07:23:13 PM 35.1053 -101.0339 133° Southeast 460 529 37,000  Level Albuquerque Center
Fri 07:24:14 PM 35.0194 -100.9192 132° Southeast 458 527 37,000  Level Albuquerque Center
Fri 07:25:16 PM 34.9331 -100.8053 133° Southeast 457 526 37,000  Level Albuquerque Center
Fri 07:31:23 PM 34.3940 -100.0980 133° Southeast 460 529 37,000  Level FlightAware ADS-B
Fri 07:32:01 PM 34.3440 -100.0320 133° Southeast 460 529 37,000  Level FlightAware ADS-B
Fri 07:32:57 PM 34.2640 -99.9290 133° Southeast 459 528 37,000  Level FlightAware ADS-B
Fri 07:33:59 PM 34.1890 -99.8280 132° Southeast 459 528 37,000  Level FlightAware ADS-B
Fri 07:34:36 PM 34.1450 -99.7680 132° Southeast 459 528 37,000  Level FlightAware ADS-B
Fri 07:35:23 PM 34.0480 -99.6520 135° Southeast 450 518 37,000  Level FlightAware ADS-B
Fri 07:36:03 PM 33.9960 -99.5850 133° Southeast 450 518 37,000  Level FlightAware ADS-B
Fri 07:36:55 PM 33.9220 -99.4900 133° Southeast 449 517 37,000  Level FlightAware ADS-B
Fri 07:37:44 PM 33.8630 -99.4140 133° Southeast 449 517 37,000  Level FlightAware ADS-B
Fri 07:38:21 PM 33.8180 -99.3560 133° Southeast 449 517 37,000  Level FlightAware ADS-B
Fri 07:38:58 PM 33.7740 -99.2990 133° Southeast 449 517 37,000  Level FlightAware ADS-B
Fri 07:39:47 PM 33.7150 -99.2230 133° Southeast 449 517 37,000  Level FlightAware ADS-B
Fri 07:40:23 PM 33.6710 -99.1670 133° Southeast 449 517 37,000  Level FlightAware ADS-B
Fri 07:41:14 PM 33.6100 -99.0880 133° Southeast 449 517 37,000  Level FlightAware ADS-B
Fri 07:41:50 PM 33.5660 -99.0320 133° Southeast 449 517 37,000  Level FlightAware ADS-B
Fri 07:42:38 PM 33.5090 -98.9580 133° Southeast 449 517 37,000  Level FlightAware ADS-B
Fri 07:43:14 PM 33.4650 -98.9020 133° Southeast 449 517 37,000  Level FlightAware ADS-B
Fri 07:44:01 PM 33.3060 -98.7130 135° Southeast 451 519 37,000  Level FlightAware ADS-B
Fri 07:44:39 PM 33.2490 -98.6420 134° Southeast 450 518 37,000  Level FlightAware ADS-B
Fri 07:45:17 PM 33.1930 -98.5730 134° Southeast 449 517 37,000  Level FlightAware ADS-B
Fri 07:46:05 PM 33.1260 -98.4900 134° Southeast 449 517 37,000  Level FlightAware ADS-B
Fri 07:46:47 PM 33.0640 -98.4130 134° Southeast 447 514 37,000  Level FlightAware ADS-B
Fri 07:47:31 PM 33.0000 -98.3340 134° Southeast 446 513 37,000  Level FlightAware ADS-B
Fri 07:48:09 PM 32.9470 -98.2680 134° Southeast 446 513 37,000  Level FlightAware ADS-B
Fri 07:48:53 PM 32.8840 -98.1900 134° Southeast 445 512 37,000  Level FlightAware ADS-B
Fri 07:49:34 PM 32.8260 -98.1200 135° Southeast 445 512 37,000  Level FlightAware ADS-B
Fri 07:50:15 PM 32.7670 -98.0470 134° Southeast 445 512 37,000  Level FlightAware ADS-B
Fri 07:50:59 PM 32.7020 -97.9680 134° Southeast 447 514 37,000  Level FlightAware ADS-B
Fri 07:51:41 PM 32.6440 -97.8940 133° Southeast 447 514 37,000  Level FlightAware ADS-B
Fri 07:51:51 PM 32.6297 -97.8765 134° Southeast 448 516 37,000  Level FlightAware ADS-B
Fri 07:52:24 PM 32.5830 -97.8180 133° Southeast 447 514 37,000  Level FlightAware ADS-B
Fri 07:53:04 PM 32.5260 -97.7470 134° Southeast 447 514 37,000  Level FlightAware ADS-B
Fri 07:53:48 PM 32.4630 -97.6690 134° Southeast 446 513 37,000  Level FlightAware ADS-B
Fri 07:54:28 PM 32.4050 -97.5970 134° Southeast 445 512 37,000  Level FlightAware ADS-B
Fri 07:55:08 PM 32.3500 -97.5280 133° Southeast 444 511 37,000  Level FlightAware ADS-B
Fri 07:55:49 PM 32.2903 -97.4544 134° Southeast 443 510 37,000 -81 Level FlightAware ADS-B
Fri 07:56:22 PM 32.2439 -97.3972 134° Southeast 443 510 36,900 -537 Descending FlightAware ADS-B
Fri 07:56:56 PM 32.1962 -97.3384 134° Southeast 445 512 36,400 -941 Descending FlightAware ADS-B
Fri 07:58:04 PM 32.0974 -97.2193 134° Southeast 453 521 35,300 -960 Descending FlightAware ADS-B
Fri 07:58:11 PM 32.0858 -97.2080 140° Southeast 455 524 35,200 -750 Descending FlightAware ADS-B
Fri 07:58:20 PM 32.0711 -97.1950 143° Southeast 456 525 35,100 -986 Descending FlightAware ADS-B
Fri 07:59:24 PM 31.9599 -97.1053 146° Southeast 457 526 34,000 -695 Descending FlightAware ADS-B
Fri 07:59:55 PM 31.9055 -97.0615 146° Southeast 458 527 34,000  Level FlightAware ADS-B
Fri 08:00:32 PM 31.8393 -97.0083 146° Southeast 459 528 34,000  Level FlightAware ADS-B
Fri 08:01:06 PM 31.7806 -96.9609 146° Southeast 458 527 34,000  Level FlightAware ADS-B
Fri 08:01:48 PM 31.7081 -96.9028 146° Southeast 458 527 34,000  Level FlightAware ADS-B
Fri 08:02:25 PM 31.6418 -96.8499 146° Southeast 458 527 34,000  Level FlightAware ADS-B
Fri 08:03:27 PM 31.5348 -96.7644 146° Southeast 457 526 34,000 -261 Level FlightAware ADS-B
Fri 08:03:57 PM 31.4816 -96.7220 146° Southeast 457 526 33,600 -900 Descending FlightAware ADS-B
Fri 08:04:27 PM 31.4282 -96.6796 146° Southeast 459 528 33,100 -1,065 Descending FlightAware ADS-B
Fri 08:04:59 PM 31.3733 -96.6358 146° Southeast 459 528 32,500 -1,935 Descending FlightAware ADS-B
Fri 08:06:00 PM 31.2674 -96.5518 146° Southeast 448 516 30,100 -2,308 Descending FlightAware ADS-B
Fri 08:06:30 PM 31.2157 -96.5109 146° Southeast 441 507 29,000 -2,200 Descending FlightAware ADS-B
Fri 08:07:00 PM 31.1652 -96.4709 146° Southeast 435 501 27,900 -2,032 Descending FlightAware ADS-B
Fri 08:07:32 PM 31.1133 -96.4300 146° Southeast 428 493 26,900 -2,000 Descending FlightAware ADS-B
Fri 08:10:36 PM 30.8243 -96.2025 146° Southeast 389 448 20,700 -2,009 Descending FlightAware ADS-B
Fri 08:11:07 PM 30.7787 -96.1669 146° Southeast 382 440 19,700 -1,869 Descending FlightAware ADS-B
Fri 08:11:37 PM 30.7349 -96.1326 146° Southeast 376 433 18,800 -1,829 Descending FlightAware ADS-B
Fri 08:13:51 PM 30.5570 -95.9717 138° Southeast 354 407 14,700 -1,846 Descending FlightAware ADS-B
Fri 08:14:52 PM 30.4837 -95.8946 138° Southeast 349 402 12,800 -1,328 Descending FlightAware ADS-B
Fri 08:15:53 PM 30.4117 -95.8191 138° Southeast 347 399 12,000 -593 Descending FlightAware ADS-B
Fri 08:16:23 PM 30.3761 -95.7818 138° Southeast 347 399 11,900 -700 Descending FlightAware ADS-B
Fri 08:16:53 PM 30.3402 -95.7444 138° Southeast 345 397 11,300 -1,055 Descending FlightAware ADS-B
Fri 08:17:54 PM 30.2708 -95.6718 138° Southeast 314 361 10,300 -839 Descending FlightAware ADS-B
Fri 08:18:26 PM 30.2372 -95.6366 138° Southeast 290 334 10,000 -938 Descending FlightAware ADS-B
Fri 08:18:58 PM 30.2054 -95.6036 138° Southeast 288 331 9,300 -1,355 Descending FlightAware ADS-B
Fri 08:19:59 PM 30.1455 -95.5410 138° Southeast 287 330 7,900 -1,385 Descending FlightAware ADS-B
Fri 08:20:29 PM 30.1161 -95.5098 134° Southeast 286 329 7,200 -1,231 Descending FlightAware ADS-B
Fri 08:20:38 PM 30.1098 -95.4979 117° Southeast 281 323 7,100 -600 Descending FlightAware ADS-B
Fri 08:20:49 PM 30.1063 -95.4836 101° East 277 319 7,000 -1,000 Descending FlightAware ADS-B
Fri 08:21:14 PM 30.1060 -95.4470 89° East 274 315 6,500 -1,167 Descending FlightAware ADS-B
Fri 08:21:25 PM 30.1060 -95.4297 90° East 274 315 6,300 -571 Descending FlightAware ADS-B
Fri 08:21:56 PM 30.1059 -95.3843 90° East 273 314 6,100 -156 Descending FlightAware ADS-B
Fri 08:22:42 PM 30.1059 -95.3185 90° East 270 311 6,100  Level FlightAware ADS-B
Fri 08:22:57 PM 30.1059 -95.2963 90° East 272 313 6,100  Level FlightAware ADS-B
Fri 08:23:12 PM 30.1059 -95.2743 90° East 273 314 6,100 -1,350 Level FlightAware ADS-B
Fri 08:23:37 PM 30.1061 -95.2385 89° East 278 320 5,200 -2,250 Descending FlightAware ADS-B
Fri 08:23:52 PM 30.1061 -95.2153 90° East 283 326 4,600 -2,077 Descending FlightAware ADS-B
Fri 08:24:03 PM 30.1060 -95.1986 90° East 283 326 4,300 -1,600 Descending FlightAware ADS-B
Fri 08:24:07 PM 30.1057 -95.1928 93° East 282 325 4,200 -1,846 Descending FlightAware ADS-B
Fri 08:24:16 PM 30.1031 -95.1804 107° East 282 325 3,900 -2,000 Descending FlightAware ADS-B
Fri 08:24:19 PM 30.1013 -95.1758 114° Southeast 280 322 3,800 -1,500 Descending FlightAware ADS-B
Fri 08:24:32 PM 30.0916 -95.1608 134° Southeast 276 318 3,500 -1,143 Descending FlightAware ADS-B
Fri 08:24:40 PM 30.0840 -95.1545 148° Southeast 266 306 3,400 -1,636 Descending FlightAware ADS-B
Fri 08:24:43 PM 30.0797 -95.1520 153° Southeast 263 303 3,200 -2,308 Descending FlightAware ADS-B
Fri 08:24:53 PM 30.0693 -95.1491 170° South 257 296 2,900 -1,846 Descending FlightAware ADS-B
Fri 08:24:56 PM 30.0658 -95.1489 177° South 255 293 2,800 -2,000 Descending FlightAware ADS-B

Login

Don't have an account? Register now (free) for customized features, flight alerts, and more!